This demonstration page uses our WeatherBlox Daily Observations layout. Learn more.

36.17497, -115.13722

Hourly Observations for September 3, 2018

Temp ( °F °C ) Dew Point ( °F °C ) Humidity (%) Winds ( mph kmh ) Pressure ( in mb ) Visibility ( mi km ) Precip ( " mm )
12:53 am 00:53 Clear 84 28.9 44 6.7 25 25 SSE 3 6 29.8 1009 10 16.09344 0 0
1:53 am 01:53 Clear 82 27.8 44 6.7 26 26 NW 3 6 29.8 1009 10 16.09344 0 0
2:53 am 02:53 Clear 79 26.1 43 6.1 28 28 NNW 5 7 29.8 1009 10 16.09344 0 0
3:53 am 03:53 Clear 79 26.1 44 6.7 29 29 NW 5 7 29.83 1010 10 16.09344 0 0
4:53 am 04:53 Clear 78 25.6 44 6.7 30 30 NNW 3 6 29.83 1010 10 16.09344 0 0
5:53 am 05:53 Clear 76 24.4 45 7.2 33 33 NNW 5 7 29.85 1011 10 16.09344 0 0
6:53 am 06:53 Sunny 77 25 43 6.1 30 30 NNW 7 11 29.85 1011 10 16.09344 0 0
7:53 am 07:53 Sunny 81 27.2 44 6.7 27 27 N 5 7 29.88 1012 10 16.09344 0 0
8:53 am 08:53 Sunny 85 29.4 46 7.8 26 26 SE 6 9 29.88 1012 10 16.09344 0 0
9:53 am 09:53 Sunny 88 31.1 48 8.9 25 25 S 8 13 29.88 1012 10 16.09344 0 0
10:53 am 10:53 Sunny 91 32.8 50 10 25 25 S 7 11 29.85 1011 10 16.09344 0 0
11:53 am 11:53 Sunny 94 34.4 50 10 22 22 ESE 7 11 29.85 1011 10 16.09344 0 0
12:53 pm 12:53 Sunny 95 35 49 9.4 21 21 SSE 12 19 29.83 1010 10 16.09344 0 0
1:53 pm 13:53 Sunny 95 35 47 8.3 19 19 SSE 8 13 29.8 1009 10 16.09344 0 0
2:53 pm 14:53 Sunny 96 35.6 47 8.3 19 19 WSW 8 13 29.77 1008 10 16.09344 0 0
3:53 pm 15:53 Sunny 97 36.1 46 7.8 17 17 SSE 6 9 29.77 1008 10 16.09344 0 0
4:53 pm 16:53 Mostly Sunny 94 34.4 48 8.9 21 21 WSW 18 30 29.77 1008 10 16.09344 0 0
5:53 pm 17:53 Sunny 94 34.4 47 8.3 20 20 N 5 7 29.77 1008 10 16.09344 0 0
6:53 pm 18:53 Sunny 93 33.9 46 7.8 20 20 SSW 10 17 29.77 1008 10 16.09344 0 0
7:53 pm 19:53 Clear 92 33.3 45 7.2 20 20 SSE 6 9 29.8 1009 10 16.09344 0 0
8:53 pm 20:53 Mostly Cloudy 81 27.2 53 11.7 38 38 ENE 37 59 29.88 1012 8 12.874752 0 0
9:53 pm 21:53 Cloudy 78 25.6 55 12.8 45 45 NE 15 24 29.91 1013 10 16.09344 0.001 0.001
10:53 pm 22:53 Cloudy with Light Rain 78 25.6 57 13.9 48 48 N 3 6 29.94 1014 10 16.09344 0.01 0.254
11:53 pm 23:53 Mostly Cloudy 77 25 57 13.9 50 50 WSW 7 11 29.91 1013 10 16.09344 0.001 0.001

Powered by AerisWeather